Bay Mills, Wisconsin
Current Conditions -  °F | °C
As of 6:15 AM on Thursday 18 Dec 2014 (Local Time) from KTKV Reporting Station
Overcast Overcast  
Wind Chill: 21°   Ceiling: 1200
Heat Index: 21°   Visibility: 10mi
Dew Point: 17°   Wind: 0mph
Humidity: 86%   Direction: NA
Pressure: 30.25"   Gusts: NA
Location:  45.5047°N, 89.7732°W
Report Text: KTKV 181215Z AUTO 00000KT 10SM OVC012 M06/M08 A3025 RMK AO2 T10631083
Loading
Personal Weather Stations






























Interactive Weather Map New forecast layout! Learn more

10-Day Weather Forecast

Advertisements
Track Severe Weather on mobile